Data for 04/01/2018

Time Sea-Level Adjusted Pressure Absolute Pressure Temperature Relative Humidity Dew Point   
(mb) (inHg) (mb) (inHg) (C) (F) (%) (C) (F)
00:05 1020 30.12 849 25.07 -9.6 14.8 67 -14.6 5.8
00:10 1020 30.12 849 25.07 -9.5 14.9 67 -14.5 5.9
00:15 1020 30.12 849 25.07 -9.5 14.9 67 -14.5 5.9
00:20 1020 30.12 849 25.07 -9.5 14.9 67 -14.5 5.8
00:25 1020 30.12 849 25.07 -9.5 14.8 67 -14.5 5.8
00:30 1020 30.12 849 25.07 -9.5 14.9 68 -14.5 6
00:35 1020 30.12 849 25.07 -9.5 14.9 68 -14.4 6.1
00:40 1020 30.12 849 25.07 -9.5 15 67 -14.5 5.9
00:45 1020 30.12 849 25.07 -9.4 15 67 -14.5 5.9
00:50 1020 30.12 849 25.07 -9.3 15.2 66 -14.5 5.9
00:55 1020 30.12 849 25.07 -9.3 15.4 66 -14.4 6.1
01:00 1020 30.12 849 25.07 -9.2 15.5 66 -14.4 6.1
01:05 1020 30.12 849 25.07 -9.2 15.5 66 -14.4 6
01:10 1020 30.12 849 25.07 -9.2 15.4 66 -14.4 6.1
01:15 1020 30.12 849 25.07 -9.2 15.4 66 -14.4 6
01:20 1020 30.12 849 25.07 -9.2 15.4 67 -14.3 6.2
01:25 1020 30.12 849 25.07 -9.2 15.4 67 -14.3 6.2
01:30 1019 30.09 849 25.07 -9.2 15.4 67 -14.4 6.1
01:35 1019 30.09 849 25.07 -9.2 15.4 67 -14.3 6.3
01:40 1019 30.09 849 25.07 -9.2 15.5 67 -14.3 6.2
01:45 1019 30.09 849 25.07 -9.3 15.3 66 -14.4 6.1
01:50 1019 30.09 848 25.04 -9.3 15.3 67 -14.4 6.1
01:55 1019 30.09 848 25.04 -9.3 15.2 68 -14.2 6.4
02:00 1019 30.09 848 25.04 -9.4 15.1 68 -14.2 6.5
02:05 1019 30.09 848 25.04 -9.4 15.1 68 -14.3 6.3
02:10 1019 30.09 848 25.04 -9.4 15.1 68 -14.3 6.3
02:15 1019 30.09 848 25.04 -9.4 15 69 -14.2 6.5
02:20 1019 30.09 848 25.04 -9.4 15 68 -14.2 6.4
02:25 1019 30.09 848 25.04 -9.4 15 68 -14.2 6.4
02:30 1019 30.09 848 25.04 -9.4 15 69 -14.2 6.5
02:35 1019 30.09 848 25.04 -9.4 15.2 68 -14.1 6.5
02:40 1019 30.09 848 25.04 -9.3 15.2 69 -14.1 6.7
02:45 1019 30.09 848 25.04 -9.3 15.2 69 -14.1 6.6
02:50 1018 30.06 848 25.04 -9.3 15.2 68 -14.2 6.5
02:55 1018 30.06 848 25.04 -9.4 15.2 69 -14.1 6.6
03:00 1018 30.06 848 25.04 -9.3 15.4 69 -13.9 7
03:05 1018 30.06 848 25.04 -9.2 15.4 69 -14 6.9
03:10 1018 30.06 848 25.04 -9.2 15.5 69 -13.9 6.9
03:15 1018 30.06 847 25.01 -9.2 15.5 69 -13.8 7.1
03:20 1018 30.06 847 25.01 -9.2 15.5 69 -13.9 7
03:25 1018 30.06 847 25.01 -9.2 15.5 69 -13.8 7.1
03:30 1018 30.06 847 25.01 -9.1 15.6 70 -13.7 7.3
03:35 1018 30.06 847 25.01 -9.1 15.6 69 -13.8 7.2
03:40 1018 30.06 847 25.01 -9.1 15.7 69 -13.8 7.1
03:45 1018 30.06 847 25.01 -9 15.7 69 -13.7 7.3
03:50 1018 30.06 847 25.01 -9 15.7 69 -13.6 7.4
03:55 1018 30.06 847 25.01 -9.1 15.7 70 -13.6 7.5
04:00 1018 30.06 847 25.01 -9.1 15.6 70 -13.6 7.6
04:05 1018 30.06 847 25.01 -9.1 15.5 71 -13.5 7.7
04:10 1018 30.06 847 25.01 -9.1 15.6 72 -13.3 8
04:15 1018 30.06 847 25.01 -9.2 15.5 73 -13.1 8.4
04:20 1018 30.06 847 25.01 -9.2 15.4 74 -13.1 8.4
04:25 1018 30.06 847 25.01 -9.2 15.4 74 -13.1 8.4
04:30 1018 30.06 847 25.01 -9.3 15.3 74 -13.2 8.3
04:35 1018 30.06 847 25.01 -9.3 15.3 74 -13.2 8.3
04:40 1018 30.06 847 25.01 -9.3 15.2 74 -13.2 8.2
04:45 1018 30.06 847 25.01 -9.4 15.1 74 -13.2 8.2
04:50 1018 30.06 847 25.01 -9.4 15.1 74 -13.2 8.3
04:55 1018 30.06 847 25.01 -9.4 15 75 -13.1 8.3
05:00 1018 30.06 847 25.01 -9.4 15 75 -13.1 8.4
05:05 1018 30.06 847 25.01 -9.6 14.8 76 -13.1 8.4
05:10 1018 30.06 847 25.01 -9.8 14.4 76 -13.2 8.3
05:15 1017 30.03 847 25.01 -9.8 14.3 75 -13.4 7.9
05:20 1017 30.03 847 25.01 -9.8 14.4 76 -13.2 8.3
05:25 1017 30.03 847 25.01 -9.9 14.3 77 -13.2 8.2
05:30 1017 30.03 847 25.01 -10 14 77 -13.3 8
05:35 1017 30.03 846 24.98 -10.1 13.9 77 -13.4 7.9
05:40 1017 30.03 846 24.98 -10.1 13.8 77 -13.4 7.9
05:45 1017 30.03 846 24.98 -10 13.9 76 -13.4 7.8
05:50 1017 30.03 846 24.98 -9.9 14.2 75 -13.5 7.7
05:55 1017 30.03 846 24.98 -9.9 14.3 75 -13.5 7.8
06:00 1017 30.03 846 24.98 -9.9 14.3 75 -13.4 7.8
06:05 1017 30.03 846 24.98 -9.8 14.4 76 -13.3 8
06:10 1017 30.03 846 24.98 -9.8 14.3 76 -13.3 8
06:15 1017 30.03 846 24.98 -10 14.1 77 -13.3 8
06:20 1017 30.03 846 24.98 -10.1 13.8 78 -13.3 8.1
06:25 1017 30.03 846 24.98 -10.2 13.7 78 -13.3 8.1
06:30 1017 30.03 846 24.98 -10.3 13.5 78 -13.4 7.9
06:35 1017 30.03 846 24.98 -10.3 13.4 79 -13.3 8
06:40 1017 30.03 846 24.98 -10.4 13.4 79 -13.3 8.1
06:45 1017 30.03 846 24.98 -10.3 13.4 79 -13.3 8.1
06:50 1016 30 846 24.98 -10.3 13.4 79 -13.3 8.1
06:55 1016 30 846 24.98 -10.3 13.5 79 -13.2 8.2
07:00 1016 30 845 24.95 -9.9 14.3 76 -13.3 8.1
07:05 1016 30 845 24.95 -9.4 15.1 76 -13 8.7
07:10 1016 30 845 24.95 -9.4 15.1 77 -12.7 9.1
07:15 1016 30 845 24.95 -9.4 15.1 77 -12.7 9.2
07:20 1016 30 845 24.95 -9.4 15.1 77 -12.7 9.2
07:25 1016 30 845 24.95 -10.1 13.9 80 -13 8.7
07:30 1016 30 845 24.95 -10.3 13.6 80 -13.1 8.4
07:35 1016 30 845 24.95 -10.1 13.8 79 -13.1 8.4
07:40 1016 30 845 24.95 -9.7 14.5 76 -13.1 8.4
07:45 1016 30 845 24.95 -9.4 15 76 -13 8.6
07:50 1016 30 845 24.95 -9.2 15.5 75 -12.9 8.8
07:55 1016 30 845 24.95 -8.8 16.2 74 -12.7 9.2
08:00 1016 30 845 24.95 -8.3 17 72 -12.5 9.5
08:05 1016 30 845 24.95 -8 17.7 70 -12.5 9.4
08:10 1016 30 845 24.95 -7.7 18.1 69 -12.5 9.6
08:15 1016 30 845 24.95 -7.3 18.8 68 -12.3 9.8
08:20 1016 30 845 24.95 -6.9 19.7 67 -12 10.4
08:25 1015 29.97 845 24.95 -6.4 20.5 64 -12.1 10.2
08:30 1015 29.97 845 24.95 -6.4 20.4 64 -12.2 10.1
08:35 1015 29.97 845 24.95 -6.8 19.8 66 -12.1 10.1
08:40 1015 29.97 845 24.95 -6.7 19.9 67 -11.9 10.6
08:45 1015 29.97 845 24.95 -6.7 20 67 -11.8 10.8
08:50 1015 29.97 845 24.95 -6.7 19.9 66 -12 10.4
08:55 1015 29.97 845 24.95 -6.6 20.1 64 -12.3 9.9
09:00 1015 29.97 845 24.95 -6.7 20 65 -12.2 10
09:05 1015 29.97 844 24.92 -6.3 20.7 65 -11.8 10.8
09:10 1015 29.97 844 24.92 -6 21.1 63 -12 10.5
09:15 1015 29.97 844 24.92 -5.9 21.4 63 -11.9 10.6
09:20 1015 29.97 844 24.92 -5.2 22.7 61 -11.7 11
09:25 1015 29.97 844 24.92 -5.2 22.7 60 -11.9 10.6
09:30 1015 29.97 844 24.92 -5.5 22.1 61 -11.8 10.8
09:35 1015 29.97 844 24.92 -5.4 22.4 62 -11.5 11.3
09:40 1015 29.97 844 24.92 -4.7 23.5 57 -12 10.4
09:45 1015 29.97 844 24.92 -4.1 24.7 57 -11.4 11.5
09:50 1015 29.97 844 24.92 -3.5 25.7 55 -11.3 11.6
09:55 1015 29.97 844 24.92 -3.6 25.4 54 -11.6 11.2
10:00 1015 29.97 844 24.92 -4 24.9 54 -11.9 10.6
10:05 1014 29.94 844 24.92 -4 24.7 56 -11.5 11.3
10:10 1014 29.94 844 24.92 -3.8 25.2 53 -11.9 10.5
10:15 1014 29.94 843 24.89 -2.9 26.7 53 -11.3 11.7
10:20 1014 29.94 843 24.89 -2.6 27.3 53 -10.8 12.5
10:25 1014 29.94 843 24.89 -2.7 27.2 53 -10.9 12.3
10:30 1014 29.94 843 24.89 -2.9 26.8 53 -11.2 11.8
10:35 1014 29.94 843 24.89 -2.3 27.8 51 -11.3 11.7
10:40 1014 29.94 843 24.89 -2.4 27.7 52 -10.9 12.3
10:45 1013 29.91 843 24.89 -2.3 27.9 52 -10.9 12.4
10:50 1013 29.91 843 24.89 -2.3 27.8 52 -10.9 12.4
10:55 1013 29.91 842 24.86 -2.5 27.6 50 -11.4 11.5
11:00 1013 29.91 842 24.86 -2 28.4 49 -11.2 11.8
11:05 1013 29.91 842 24.86 -1.8 28.8 49 -11.2 11.9
11:10 1013 29.91 842 24.86 -1.4 29.4 48 -11 12.2
11:15 1013 29.91 842 24.86 -1 30.1 46 -11.3 11.7
11:20 1013 29.91 842 24.86 -0.5 31.1 46 -10.8 12.5
11:25 1013 29.91 842 24.86 0.1 32.2 44 -10.8 12.5
11:30 1013 29.91 842 24.86 0.5 33 44 -10.5 13.1
11:35 1013 29.91 842 24.86 1 33.8 44 -9.8 14.4
11:40 1012 29.88 842 24.86 0.6 33.1 44 -10.3 13.4
11:45 1012 29.88 842 24.86 1.1 34 44 -10 14
11:50 1012 29.88 841 24.83 1.1 34 43 -10.3 13.5
11:55 1012 29.88 841 24.83 2 35.7 41 -10 14
12:00 1012 29.88 841 24.83 2.1 35.8 40 -10 13.9
12:05 1012 29.88 841 24.83 2 35.6 42 -9.5 15
12:10 1012 29.88 841 24.83 1.2 34.2 48 -8.6 16.5
12:15 1012 29.88 841 24.83 0 32 51 -8.8 16.1
12:20 1012 29.88 841 24.83 1 33.8 46 -9.3 15.3
12:25 1011 29.85 841 24.83 1.5 34.6 47 -8.6 16.4
12:30 1011 29.85 840 24.81 1.7 35 47 -8.5 16.7
12:35 1011 29.85 840 24.81 2.1 35.7 46 -8.3 17.1
12:40 1011 29.85 840 24.81 2.7 36.9 44 -8.4 16.9
12:45 1011 29.85 840 24.81 2.8 37.1 47 -7.4 18.7
12:50 1011 29.85 840 24.81 1.6 34.9 49 -8.1 17.4
12:55 1011 29.85 840 24.81 1.7 35 48 -8.3 17.1
13:00 1011 29.85 840 24.81 2.1 35.7 53 -6.5 20.3
13:05 1010 29.83 840 24.81 3 37.4 45 -7.9 17.8
13:10 1010 29.83 840 24.81 4.4 39.9 41 -7.7 18.2
13:15 1010 29.83 839 24.78 3.7 38.7 44 -7.3 18.8
13:20 1010 29.83 839 24.78 3.9 39.1 43 -7.6 18.4
13:25 1010 29.83 839 24.78 4.3 39.7 46 -6.2 20.8
13:30 1010 29.83 839 24.78 2.7 36.8 51 -6.5 20.3
13:35 1010 29.83 839 24.78 3.3 38 47 -7 19.3
13:40 1010 29.83 839 24.78 4 39.1 43 -7.4 18.6
13:45 1010 29.83 839 24.78 4.5 40.1 44 -6.8 19.7
13:50 1009 29.8 839 24.78 3.9 39.1 48 -6 21.2
13:55 1009 29.8 839 24.78 4.9 40.9 40 -7.5 18.6
14:00 1009 29.8 838 24.75 5 41 43 -6.5 20.2
14:05 1009 29.8 838 24.75 4.7 40.5 43 -6.8 19.8
14:10 1009 29.8 838 24.75 5.4 41.7 43 -6.1 20.9
14:15 1009 29.8 838 24.75 5.4 41.7 40 -7 19.4
14:20 1009 29.8 838 24.75 5.7 42.3 40 -6.8 19.7
14:25 1009 29.8 838 24.75 6.3 43.4 37 -7.4 18.8
14:30 1009 29.8 838 24.75 7 44.6 37 -6.8 19.8
14:35 1009 29.8 838 24.75 6.1 43.1 42 -5.7 21.7
14:40 1009 29.8 838 24.75 6.2 43.1 41 -6.1 20.9
14:45 1009 29.8 838 24.75 6.4 43.5 41 -5.8 21.5
14:50 1008 29.77 838 24.75 6.4 43.6 39 -6.5 20.3
14:55 1008 29.77 837 24.72 7.1 44.8 34 -7.8 18
15:00 1008 29.77 837 24.72 7.2 44.9 38 -6.4 20.6
15:05 1008 29.77 837 24.72 6.6 43.9 36 -7.6 18.4
15:10 1008 29.77 837 24.72 7.6 45.7 33 -7.5 18.6
15:15 1008 29.77 837 24.72 7.2 45 34 -7.7 18.1
15:20 1008 29.77 837 24.72 6.3 43.4 39 -6.8 19.8
15:25 1008 29.77 837 24.72 5.9 42.7 38 -7.2 19.1
15:30 1008 29.77 837 24.72 6 42.7 37 -7.6 18.3
15:35 1008 29.77 837 24.72 6.4 43.5 36 -7.7 18.1
15:40 1008 29.77 837 24.72 6.1 43.1 36 -7.9 17.8
15:45 1008 29.77 837 24.72 6.2 43.2 37 -7.4 18.6
15:50 1008 29.77 837 24.72 6.1 43 35 -8.2 17.3
15:55 1008 29.77 837 24.72 7.1 44.7 33 -8 17.7
16:00 1008 29.77 837 24.72 7.3 45.2 33 -7.8 18
16:05 1008 29.77 837 24.72 6.4 43.5 36 -7.5 18.5
16:10 1007 29.74 837 24.72 6.5 43.8 34 -8.3 17.1
16:15 1007 29.74 837 24.72 7 44.7 34 -7.9 17.8
16:20 1007 29.74 836 24.69 6.8 44.2 35 -7.8 18
16:25 1007 29.74 836 24.69 6.8 44.3 36 -7.4 18.7
16:30 1007 29.74 836 24.69 7.2 45 36 -7 19.4
16:35 1007 29.74 836 24.69 6.8 44.3 36 -7.3 18.8
16:40 1007 29.74 837 24.72 7.2 45 34 -7.4 18.6
16:45 1007 29.74 836 24.69 7.5 45.6 35 -7.1 19.2
16:50 1007 29.74 836 24.69 7.4 45.2 35 -7 19.4
16:55 1007 29.74 836 24.69 7.1 44.7 38 -6.3 20.6
17:00 1007 29.74 836 24.69 7 44.6 37 -6.8 19.8
17:05 1007 29.74 836 24.69 7.2 45 39 -5.8 21.6
17:10 1007 29.74 836 24.69 6.6 43.9 39 -6.3 20.6
17:15 1007 29.74 836 24.69 6.7 44 38 -6.7 19.9
17:20 1007 29.74 836 24.69 6.8 44.3 39 -6.1 21
17:25 1007 29.74 836 24.69 6.6 43.9 41 -5.8 21.6
17:30 1007 29.74 836 24.69 6.2 43.2 41 -5.9 21.3
17:35 1007 29.74 836 24.69 6.5 43.7 41 -5.9 21.3
17:40 1007 29.74 836 24.69 6.8 44.3 41 -5.6 21.8
17:45 1007 29.74 836 24.69 7 44.6 40 -5.6 22
17:50 1007 29.74 836 24.69 7.2 44.9 41 -5.3 22.5
17:55 1007 29.74 836 24.69 7.1 44.8 42 -4.9 23.1
18:00 1007 29.74 836 24.69 7.1 44.8 42 -4.9 23.2
18:05 1007 29.74 836 24.69 7.1 44.9 42 -4.9 23.2
18:10 1007 29.74 836 24.69 7 44.6 43 -4.8 23.4
18:15 1007 29.74 836 24.69 6.7 44 45 -4.6 23.8
18:20 1007 29.74 836 24.69 6.6 43.9 45 -4.6 23.8
18:25 1007 29.74 836 24.69 6.6 43.9 48 -3.7 25.4
18:30 1007 29.74 836 24.69 6 42.8 51 -3.4 25.9
18:35 1007 29.74 836 24.69 5.4 41.7 57 -2.5 27.5
18:40 1007 29.74 836 24.69 5 41 60 -2 28.3
18:45 1007 29.74 836 24.69 4.8 40.7 64 -1.5 29.3
18:50 1007 29.74 836 24.69 4.4 39.9 67 -1.1 30
18:55 1007 29.74 836 24.69 3.9 39.1 69 -1.2 29.9
19:00 1007 29.74 836 24.69 3.8 38.8 70 -1.1 30
19:05 1007 29.74 836 24.69 3.9 38.9 70 -1 30.1
19:10 1007 29.74 836 24.69 3.9 39.1 72 -0.7 30.7
19:15 1007 29.74 836 24.69 3.9 39.1 71 -0.8 30.5
19:20 1007 29.74 836 24.69 3.8 38.9 75 -0.2 31.6
19:25 1007 29.74 836 24.69 3.7 38.7 75 -0.3 31.5
19:30 1007 29.74 836 24.69 3.5 38.3 75 -0.4 31.2
19:35 1007 29.74 836 24.69 3.2 37.8 77 -0.4 31.2
19:40 1007 29.74 836 24.69 2.9 37.3 80 -0.3 31.5
19:45 1007 29.74 836 24.69 2.6 36.7 81 -0.2 31.6
19:50 1007 29.74 836 24.69 2.5 36.5 82 -0.2 31.7
19:55 1007 29.74 836 24.69 2.5 36.5 83 -0 31.9
20:00 1007 29.74 836 24.69 2.5 36.5 83 -0 32
20:05 1007 29.74 836 24.69 2.5 36.5 82 -0.2 31.6
20:10 1007 29.74 836 24.69 2.1 35.8 84 -0.4 31.3
20:15 1007 29.74 836 24.69 1.6 34.9 85 -0.7 30.8
20:20 1007 29.74 836 24.69 1.4 34.5 85 -0.9 30.4
20:25 1006 29.71 836 24.69 1.2 34.1 86 -0.9 30.4
20:30 1006 29.71 836 24.69 1.1 33.9 86 -1 30.2
20:35 1006 29.71 835 24.66 1 33.8 86 -1 30.1
20:40 1006 29.71 835 24.66 0.9 33.7 86 -1.2 29.9
20:45 1006 29.71 835 24.66 0.9 33.6 86 -1.2 29.8
20:50 1006 29.71 835 24.66 1 33.8 85 -1.3 29.7
20:55 1006 29.71 835 24.66 1 33.8 85 -1.2 29.9
21:00 1006 29.71 835 24.66 1 33.7 85 -1.3 29.7
21:05 1006 29.71 835 24.66 1 33.9 85 -1.2 29.8
21:10 1006 29.71 835 24.66 1.1 34 84 -1.3 29.6
21:15 1006 29.71 835 24.66 1.3 34.3 83 -1.3 29.7
21:20 1006 29.71 835 24.66 1.4 34.5 82 -1.3 29.7
21:25 1006 29.71 835 24.66 1.5 34.7 83 -1.1 30
21:30 1006 29.71 835 24.66 1.6 34.9 82 -1.1 30
21:35 1005 29.68 835 24.66 1.8 35.2 82 -1 30.1
21:40 1005 29.68 834 24.63 1.9 35.4 81 -1 30.3
21:45 1005 29.68 834 24.63 2 35.6 81 -0.9 30.3
21:50 1005 29.68 834 24.63 2.1 35.9 81 -0.9 30.5
21:55 1005 29.68 835 24.66 2.1 35.8 80 -1 30.3
22:00 1005 29.68 835 24.66 2.1 35.8 79 -1.1 30
22:05 1005 29.68 835 24.66 2.1 35.7 79 -1.1 30
22:10 1005 29.68 835 24.66 2 35.6 80 -1.1 29.9
22:15 1005 29.68 835 24.66 2 35.6 79 -1.2 29.8
22:20 1005 29.68 835 24.66 2 35.6 80 -1.1 30
22:25 1005 29.68 834 24.63 2.2 35.9 80 -1 30.2
22:30 1005 29.68 834 24.63 2.2 36 79 -1 30.2
22:35 1005 29.68 834 24.63 2.1 35.7 80 -1 30.2
22:40 1005 29.68 834 24.63 1.9 35.5 79 -1.3 29.7
22:45 1005 29.68 834 24.63 2.2 35.9 80 -0.8 30.5
22:50 1005 29.68 834 24.63 2.3 36.2 80 -0.7 30.7
22:55 1005 29.68 834 24.63 2.2 36 81 -0.7 30.8
23:00 1005 29.68 834 24.63 2 35.5 83 -0.6 30.9
23:05 1005 29.68 834 24.63 1.6 34.9 84 -0.8 30.6
23:10 1005 29.68 834 24.63 1.5 34.7 84 -0.9 30.5
23:15 1005 29.68 834 24.63 1.5 34.7 81 -1.4 29.4
23:20 1005 29.68 834 24.63 1.4 34.5 80 -1.7 28.9
23:25 1005 29.68 834 24.63 1.2 34.2 81 -1.7 29
23:30 1005 29.68 834 24.63 1 33.8 83 -1.6 29.2
23:35 1005 29.68 834 24.63 0.7 33.2 84 -1.7 28.9
23:40 1005 29.68 834 24.63 0.5 32.8 85 -1.8 28.7
23:45 1005 29.68 834 24.63 0.5 32.9 84 -1.9 28.5
23:50 1005 29.68 834 24.63 0.6 33.1 84 -1.8 28.7
23:55 1005 29.68 834 24.63 0.6 33 83 -2 28.4
24:00 1005 29.68 834 24.63 0.6 33.1 81 -2.2 28